sensor_id;sensor_type;location;lat;lon;timestamp;pressure;altitude;pressure_sealevel;temperature;humidity
44988;BME280;35735;52.226;21.254;2024-01-07T00:02:10;100478.09;;;-5.66;100.00
44988;BME280;35735;52.226;21.254;2024-01-07T00:07:10;100487.47;;;-5.70;100.00
44988;BME280;35735;52.226;21.254;2024-01-07T00:12:11;100478.28;;;-5.77;100.00
44988;BME280;35735;52.226;21.254;2024-01-07T00:17:12;100480.53;;;-5.83;100.00
44988;BME280;35735;52.226;21.254;2024-01-07T00:22:12;100484.69;;;-5.86;100.00
44988;BME280;35735;52.226;21.254;2024-01-07T00:27:13;100484.16;;;-5.94;100.00
44988;BME280;35735;52.226;21.254;2024-01-07T00:32:13;100490.03;;;-5.98;100.00
44988;BME280;35735;52.226;21.254;2024-01-07T00:37:14;100491.25;;;-6.06;100.00
44988;BME280;35735;52.226;21.254;2024-01-07T00:42:14;100496.41;;;-6.08;100.00
44988;BME280;35735;52.226;21.254;2024-01-07T00:47:15;100496.31;;;-6.09;100.00
44988;BME280;35735;52.226;21.254;2024-01-07T00:52:15;100508.41;;;-6.11;100.00
44988;BME280;35735;52.226;21.254;2024-01-07T00:57:16;100510.47;;;-6.07;100.00
44988;BME280;35735;52.226;21.254;2024-01-07T01:02:17;100507.63;;;-6.10;100.00
44988;BME280;35735;52.226;21.254;2024-01-07T01:07:17;100524.38;;;-6.08;100.00
44988;BME280;35735;52.226;21.254;2024-01-07T01:12:18;100515.50;;;-6.10;100.00
44988;BME280;35735;52.226;21.254;2024-01-07T01:17:18;100524.00;;;-6.15;100.00
44988;BME280;35735;52.226;21.254;2024-01-07T01:22:19;100526.41;;;-6.18;100.00
44988;BME280;35735;52.226;21.254;2024-01-07T01:27:19;100525.00;;;-6.12;100.00
44988;BME280;35735;52.226;21.254;2024-01-07T01:32:20;100526.72;;;-6.13;100.00
44988;BME280;35735;52.226;21.254;2024-01-07T01:37:20;100528.53;;;-6.12;100.00
44988;BME280;35735;52.226;21.254;2024-01-07T01:42:21;100520.75;;;-6.10;100.00
44988;BME280;35735;52.226;21.254;2024-01-07T01:47:22;100520.75;;;-6.10;100.00
44988;BME280;35735;52.226;21.254;2024-01-07T01:52:23;100520.94;;;-6.21;100.00
44988;BME280;35735;52.226;21.254;2024-01-07T01:57:30;100510.09;;;-6.25;100.00
44988;BME280;35735;52.226;21.254;2024-01-07T02:02:33;100514.25;;;-6.29;100.00
44988;BME280;35735;52.226;21.254;2024-01-07T02:07:33;100511.28;;;-6.34;100.00
44988;BME280;35735;52.226;21.254;2024-01-07T02:12:35;100510.41;;;-6.34;100.00
44988;BME280;35735;52.226;21.254;2024-01-07T02:17:35;100508.19;;;-6.28;100.00
44988;BME280;35735;52.226;21.254;2024-01-07T02:22:36;100514.69;;;-6.23;100.00
44988;BME280;35735;52.226;21.254;2024-01-07T02:27:36;100504.31;;;-6.08;100.00
44988;BME280;35735;52.226;21.254;2024-01-07T02:32:37;100494.19;;;-6.02;100.00
44988;BME280;35735;52.226;21.254;2024-01-07T02:37:38;100503.09;;;-6.00;100.00
44988;BME280;35735;52.226;21.254;2024-01-07T02:42:39;100501.78;;;-6.06;100.00
44988;BME280;35735;52.226;21.254;2024-01-07T02:47:39;100497.91;;;-6.11;100.00
44988;BME280;35735;52.226;21.254;2024-01-07T02:52:40;100495.88;;;-6.16;100.00
44988;BME280;35735;52.226;21.254;2024-01-07T02:57:40;100499.91;;;-6.21;100.00
44988;BME280;35735;52.226;21.254;2024-01-07T03:02:41;100508.56;;;-6.35;100.00
44988;BME280;35735;52.226;21.254;2024-01-07T03:07:41;100506.72;;;-6.49;100.00
44988;BME280;35735;52.226;21.254;2024-01-07T03:12:42;100504.38;;;-6.45;100.00
44988;BME280;35735;52.226;21.254;2024-01-07T03:17:42;100516.19;;;-6.52;100.00
44988;BME280;35735;52.226;21.254;2024-01-07T03:22:43;100515.78;;;-6.58;100.00
44988;BME280;35735;52.226;21.254;2024-01-07T03:27:44;100512.16;;;-6.72;100.00
44988;BME280;35735;52.226;21.254;2024-01-07T03:32:44;100506.62;;;-6.76;100.00
44988;BME280;35735;52.226;21.254;2024-01-07T03:37:45;100504.78;;;-6.77;100.00
44988;BME280;35735;52.226;21.254;2024-01-07T03:42:46;100509.47;;;-6.73;100.00
44988;BME280;35735;52.226;21.254;2024-01-07T03:47:46;100514.72;;;-6.73;100.00
44988;BME280;35735;52.226;21.254;2024-01-07T03:52:47;100515.88;;;-6.81;100.00
44988;BME280;35735;52.226;21.254;2024-01-07T03:57:47;100521.13;;;-6.81;100.00
44988;BME280;35735;52.226;21.254;2024-01-07T04:02:48;100522.94;;;-6.80;100.00
44988;BME280;35735;52.226;21.254;2024-01-07T04:07:48;100520.47;;;-6.91;100.00
44988;BME280;35735;52.226;21.254;2024-01-07T04:12:49;100523.44;;;-6.86;100.00
44988;BME280;35735;52.226;21.254;2024-01-07T04:17:49;100522.97;;;-6.92;100.00
44988;BME280;35735;52.226;21.254;2024-01-07T04:22:50;100522.22;;;-7.03;100.00
44988;BME280;35735;52.226;21.254;2024-01-07T04:27:50;100517.09;;;-7.01;100.00
44988;BME280;35735;52.226;21.254;2024-01-07T04:32:51;100525.97;;;-6.99;100.00
44988;BME280;35735;52.226;21.254;2024-01-07T04:37:52;100522.81;;;-7.07;100.00
44988;BME280;35735;52.226;21.254;2024-01-07T04:42:52;100536.50;;;-7.11;100.00
44988;BME280;35735;52.226;21.254;2024-01-07T04:47:53;100526.44;;;-7.05;100.00
44988;BME280;35735;52.226;21.254;2024-01-07T04:52:53;100530.34;;;-7.00;100.00
44988;BME280;35735;52.226;21.254;2024-01-07T04:57:54;100537.97;;;-7.03;100.00
44988;BME280;35735;52.226;21.254;2024-01-07T05:02:55;100534.91;;;-7.09;100.00
44988;BME280;35735;52.226;21.254;2024-01-07T05:07:55;100540.62;;;-7.15;100.00
44988;BME280;35735;52.226;21.254;2024-01-07T05:12:56;100540.84;;;-7.23;100.00
44988;BME280;35735;52.226;21.254;2024-01-07T05:17:56;100541.78;;;-7.23;100.00
44988;BME280;35735;52.226;21.254;2024-01-07T05:22:57;100542.69;;;-7.22;100.00
44988;BME280;35735;52.226;21.254;2024-01-07T05:27:57;100548.63;;;-7.13;100.00
44988;BME280;35735;52.226;21.254;2024-01-07T05:32:58;100555.69;;;-7.24;100.00
44988;BME280;35735;52.226;21.254;2024-01-07T05:37:58;100555.03;;;-7.21;100.00
44988;BME280;35735;52.226;21.254;2024-01-07T05:42:59;100551.16;;;-7.27;100.00
44988;BME280;35735;52.226;21.254;2024-01-07T05:48:00;100564.47;;;-7.23;100.00
44988;BME280;35735;52.226;21.254;2024-01-07T05:53:00;100570.28;;;-7.28;100.00
44988;BME280;35735;52.226;21.254;2024-01-07T05:58:01;100577.72;;;-7.34;100.00
44988;BME280;35735;52.226;21.254;2024-01-07T06:03:01;100564.16;;;-7.28;100.00
44988;BME280;35735;52.226;21.254;2024-01-07T06:08:02;100563.09;;;-7.30;100.00
44988;BME280;35735;52.226;21.254;2024-01-07T06:13:03;100573.72;;;-7.29;100.00
44988;BME280;35735;52.226;21.254;2024-01-07T06:18:03;100570.78;;;-7.33;100.00
44988;BME280;35735;52.226;21.254;2024-01-07T06:23:04;100565.84;;;-7.40;100.00
44988;BME280;35735;52.226;21.254;2024-01-07T06:28:05;100575.09;;;-7.34;100.00
44988;BME280;35735;52.226;21.254;2024-01-07T06:33:05;100571.09;;;-7.29;100.00
44988;BME280;35735;52.226;21.254;2024-01-07T06:38:06;100585.94;;;-7.41;100.00
44988;BME280;35735;52.226;21.254;2024-01-07T06:43:07;100599.94;;;-7.52;100.00
44988;BME280;35735;52.226;21.254;2024-01-07T06:48:07;100603.94;;;-7.57;100.00
44988;BME280;35735;52.226;21.254;2024-01-07T06:53:08;100607.25;;;-7.60;100.00
44988;BME280;35735;52.226;21.254;2024-01-07T06:58:08;100609.06;;;-7.59;100.00
44988;BME280;35735;52.226;21.254;2024-01-07T07:03:09;100600.19;;;-7.61;100.00
44988;BME280;35735;52.226;21.254;2024-01-07T07:08:09;100611.81;;;-7.57;100.00
44988;BME280;35735;52.226;21.254;2024-01-07T07:13:11;100621.62;;;-7.55;100.00
44988;BME280;35735;52.226;21.254;2024-01-07T07:18:12;100627.53;;;-7.57;100.00
44988;BME280;35735;52.226;21.254;2024-01-07T07:23:12;100623.87;;;-7.59;100.00
44988;BME280;35735;52.226;21.254;2024-01-07T07:28:13;100623.19;;;-7.57;100.00
44988;BME280;35735;52.226;21.254;2024-01-07T07:33:13;100623.53;;;-7.52;100.00
44988;BME280;35735;52.226;21.254;2024-01-07T07:38:14;100635.28;;;-7.47;100.00
44988;BME280;35735;52.226;21.254;2024-01-07T07:43:14;100633.13;;;-7.41;100.00
44988;BME280;35735;52.226;21.254;2024-01-07T07:48:15;100624.38;;;-7.41;100.00
44988;BME280;35735;52.226;21.254;2024-01-07T07:53:15;100637.59;;;-7.40;100.00
44988;BME280;35735;52.226;21.254;2024-01-07T07:58:16;100644.28;;;-7.32;100.00
44988;BME280;35735;52.226;21.254;2024-01-07T08:03:16;100643.16;;;-7.23;100.00
44988;BME280;35735;52.226;21.254;2024-01-07T08:08:17;100640.44;;;-7.13;100.00
44988;BME280;35735;52.226;21.254;2024-01-07T08:13:17;100647.97;;;-7.06;100.00
44988;BME280;35735;52.226;21.254;2024-01-07T08:18:18;100655.81;;;-7.06;100.00
44988;BME280;35735;52.226;21.254;2024-01-07T08:23:19;100654.44;;;-7.01;100.00
44988;BME280;35735;52.226;21.254;2024-01-07T08:28:20;100659.59;;;-7.02;100.00
44988;BME280;35735;52.226;21.254;2024-01-07T08:33:20;100668.94;;;-7.06;100.00
44988;BME280;35735;52.226;21.254;2024-01-07T08:38:21;100680.59;;;-7.02;100.00
44988;BME280;35735;52.226;21.254;2024-01-07T08:43:22;100681.16;;;-6.95;100.00
44988;BME280;35735;52.226;21.254;2024-01-07T08:48:22;100672.81;;;-6.89;100.00
44988;BME280;35735;52.226;21.254;2024-01-07T08:53:23;100687.75;;;-6.76;100.00
44988;BME280;35735;52.226;21.254;2024-01-07T08:58:23;100684.09;;;-6.66;100.00
44988;BME280;35735;52.226;21.254;2024-01-07T09:03:24;100688.41;;;-6.67;100.00
44988;BME280;35735;52.226;21.254;2024-01-07T09:08:24;100696.28;;;-6.67;100.00
44988;BME280;35735;52.226;21.254;2024-01-07T09:13:25;100692.06;;;-6.65;100.00
44988;BME280;35735;52.226;21.254;2024-01-07T09:18:25;100690.25;;;-6.66;100.00
44988;BME280;35735;52.226;21.254;2024-01-07T09:23:26;100703.94;;;-6.70;100.00
44988;BME280;35735;52.226;21.254;2024-01-07T09:28:26;100696.41;;;-6.77;100.00
44988;BME280;35735;52.226;21.254;2024-01-07T09:33:28;100698.94;;;-6.79;100.00
44988;BME280;35735;52.226;21.254;2024-01-07T09:38:28;100686.16;;;-6.74;100.00
44988;BME280;35735;52.226;21.254;2024-01-07T09:43:29;100680.66;;;-6.65;100.00
44988;BME280;35735;52.226;21.254;2024-01-07T09:48:29;100685.66;;;-6.68;100.00
44988;BME280;35735;52.226;21.254;2024-01-07T09:53:31;100680.66;;;-6.65;100.00
44988;BME280;35735;52.226;21.254;2024-01-07T09:58:32;100682.59;;;-6.63;100.00
44988;BME280;35735;52.226;21.254;2024-01-07T10:03:33;100683.50;;;-6.62;100.00
44988;BME280;35735;52.226;21.254;2024-01-07T10:08:33;100689.78;;;-6.60;100.00
44988;BME280;35735;52.226;21.254;2024-01-07T10:13:34;100694.91;;;-6.62;100.00
44988;BME280;35735;52.226;21.254;2024-01-07T10:18:34;100694.59;;;-6.66;100.00
44988;BME280;35735;52.226;21.254;2024-01-07T10:23:35;100693.00;;;-6.76;100.00
44988;BME280;35735;52.226;21.254;2024-01-07T10:28:36;100688.66;;;-6.76;100.00
44988;BME280;35735;52.226;21.254;2024-01-07T10:33:37;100680.44;;;-6.80;100.00
44988;BME280;35735;52.226;21.254;2024-01-07T10:38:39;100681.25;;;-6.81;100.00
44988;BME280;35735;52.226;21.254;2024-01-07T10:43:42;100678.13;;;-6.64;100.00
44988;BME280;35735;52.226;21.254;2024-01-07T10:48:54;100667.97;;;-6.59;100.00
44988;BME280;35735;52.226;21.254;2024-01-07T10:53:56;100672.50;;;-6.57;100.00
44988;BME280;35735;52.226;21.254;2024-01-07T10:58:56;100684.63;;;-6.59;100.00
44988;BME280;35735;52.226;21.254;2024-01-07T11:04:04;100688.19;;;-6.70;100.00
44988;BME280;35735;52.226;21.254;2024-01-07T11:14:39;100674.94;;;-6.72;100.00
44988;BME280;35735;52.226;21.254;2024-01-07T11:19:50;100693.00;;;-6.76;100.00
44988;BME280;35735;52.226;21.254;2024-01-07T11:24:51;100680.66;;;-6.77;100.00
44988;BME280;35735;52.226;21.254;2024-01-07T11:30:01;100677.25;;;-6.76;100.00
44988;BME280;35735;52.226;21.254;2024-01-07T11:35:04;100671.41;;;-6.72;100.00
44988;BME280;35735;52.226;21.254;2024-01-07T11:40:06;100671.88;;;-6.66;100.00
44988;BME280;35735;52.226;21.254;2024-01-07T11:45:07;100673.78;;;-6.63;100.00
44988;BME280;35735;52.226;21.254;2024-01-07T11:50:08;100679.97;;;-6.63;100.00
44988;BME280;35735;52.226;21.254;2024-01-07T11:55:09;100674.28;;;-6.69;100.00
44988;BME280;35735;52.226;21.254;2024-01-07T12:00:10;100678.84;;;-6.66;100.00
44988;BME280;35735;52.226;21.254;2024-01-07T12:05:12;100685.69;;;-6.80;100.00
44988;BME280;35735;52.226;21.254;2024-01-07T12:10:12;100682.03;;;-6.82;100.00
44988;BME280;35735;52.226;21.254;2024-01-07T12:15:13;100680.09;;;-6.97;100.00
44988;BME280;35735;52.226;21.254;2024-01-07T12:20:15;100687.56;;;-7.03;100.00
44988;BME280;35735;52.226;21.254;2024-01-07T12:25:21;100689.59;;;-6.99;100.00
44988;BME280;35735;52.226;21.254;2024-01-07T12:30:24;100698.47;;;-6.97;100.00
44988;BME280;35735;52.226;21.254;2024-01-07T12:35:26;100702.72;;;-6.99;100.00
44988;BME280;35735;52.226;21.254;2024-01-07T12:40:26;100700.09;;;-6.99;100.00
44988;BME280;35735;52.226;21.254;2024-01-07T12:45:27;100710.34;;;-7.02;100.00
44988;BME280;35735;52.226;21.254;2024-01-07T12:50:28;100702.81;;;-6.97;100.00
44988;BME280;35735;52.226;21.254;2024-01-07T12:55:29;100713.19;;;-6.87;100.00
44988;BME280;35735;52.226;21.254;2024-01-07T13:00:29;100716.75;;;-6.86;100.00
44988;BME280;35735;52.226;21.254;2024-01-07T13:05:30;100713.44;;;-6.96;100.00
44988;BME280;35735;52.226;21.254;2024-01-07T13:10:30;100723.47;;;-7.02;100.00
44988;BME280;35735;52.226;21.254;2024-01-07T13:15:31;100726.56;;;-7.19;100.00
44988;BME280;35735;52.226;21.254;2024-01-07T13:20:32;100726.66;;;-7.30;100.00
44988;BME280;35735;52.226;21.254;2024-01-07T13:25:32;100740.06;;;-7.37;100.00
44988;BME280;35735;52.226;21.254;2024-01-07T13:30:33;100733.13;;;-7.48;100.00
44988;BME280;35735;52.226;21.254;2024-01-07T13:35:34;100732.41;;;-7.57;100.00
44988;BME280;35735;52.226;21.254;2024-01-07T13:40:34;100734.00;;;-7.59;100.00
44988;BME280;35735;52.226;21.254;2024-01-07T13:45:35;100731.63;;;-7.56;100.00
44988;BME280;35735;52.226;21.254;2024-01-07T13:50:35;100732.88;;;-7.51;100.00
44988;BME280;35735;52.226;21.254;2024-01-07T13:55:36;100748.91;;;-7.58;100.00
44988;BME280;35735;52.226;21.254;2024-01-07T14:00:36;100752.97;;;-7.74;100.00
44988;BME280;35735;52.226;21.254;2024-01-07T14:05:37;100753.78;;;-7.75;100.00
44988;BME280;35735;52.226;21.254;2024-01-07T14:10:37;100754.69;;;-7.74;100.00
44988;BME280;35735;52.226;21.254;2024-01-07T14:15:38;100754.78;;;-7.85;100.00
44988;BME280;35735;52.226;21.254;2024-01-07T14:20:39;100766.47;;;-7.91;100.00
44988;BME280;35735;52.226;21.254;2024-01-07T14:25:39;100776.28;;;-7.89;100.00
44988;BME280;35735;52.226;21.254;2024-01-07T14:30:40;100772.87;;;-7.88;100.00
44988;BME280;35735;52.226;21.254;2024-01-07T14:35:41;100773.00;;;-7.86;100.00
44988;BME280;35735;52.226;21.254;2024-01-07T14:40:41;100774.47;;;-7.90;100.00
44988;BME280;35735;52.226;21.254;2024-01-07T14:45:42;100775.56;;;-7.98;100.00
44988;BME280;35735;52.226;21.254;2024-01-07T14:50:43;100782.44;;;-7.88;100.00
44988;BME280;35735;52.226;21.254;2024-01-07T14:55:43;100784.00;;;-7.90;100.00
44988;BME280;35735;52.226;21.254;2024-01-07T15:00:44;100794.09;;;-8.07;100.00
44988;BME280;35735;52.226;21.254;2024-01-07T15:05:45;100802.28;;;-8.24;100.00
44988;BME280;35735;52.226;21.254;2024-01-07T15:10:45;100808.59;;;-8.32;100.00
44988;BME280;35735;52.226;21.254;2024-01-07T15:15:46;100805.16;;;-8.43;100.00
44988;BME280;35735;52.226;21.254;2024-01-07T15:20:47;100815.28;;;-8.58;100.00
44988;BME280;35735;52.226;21.254;2024-01-07T15:25:47;100803.78;;;-8.60;100.00
44988;BME280;35735;52.226;21.254;2024-01-07T15:30:48;100813.44;;;-8.59;100.00
44988;BME280;35735;52.226;21.254;2024-01-07T15:35:48;100812.81;;;-8.57;100.00
44988;BME280;35735;52.226;21.254;2024-01-07T15:40:49;100825.06;;;-8.55;100.00
44988;BME280;35735;52.226;21.254;2024-01-07T15:45:49;100832.81;;;-8.57;100.00
44988;BME280;35735;52.226;21.254;2024-01-07T15:50:50;100843.84;;;-8.71;100.00
44988;BME280;35735;52.226;21.254;2024-01-07T15:55:50;100850.53;;;-8.85;100.00
44988;BME280;35735;52.226;21.254;2024-01-07T16:00:51;100857.59;;;-8.84;100.00
44988;BME280;35735;52.226;21.254;2024-01-07T16:05:52;100855.88;;;-8.84;100.00
44988;BME280;35735;52.226;21.254;2024-01-07T16:10:52;100860.47;;;-8.81;100.00
44988;BME280;35735;52.226;21.254;2024-01-07T16:15:53;100861.53;;;-8.89;100.00
44988;BME280;35735;52.226;21.254;2024-01-07T16:20:54;100873.97;;;-8.87;100.00
44988;BME280;35735;52.226;21.254;2024-01-07T16:25:54;100876.56;;;-8.97;100.00
44988;BME280;35735;52.226;21.254;2024-01-07T16:30:55;100877.87;;;-9.02;100.00
44988;BME280;35735;52.226;21.254;2024-01-07T16:35:55;100888.63;;;-8.99;100.00
44988;BME280;35735;52.226;21.254;2024-01-07T16:40:56;100888.34;;;-9.02;100.00
44988;BME280;35735;52.226;21.254;2024-01-07T16:45:57;100899.06;;;-8.99;100.00
44988;BME280;35735;52.226;21.254;2024-01-07T16:50:57;100905.63;;;-9.04;100.00
44988;BME280;35735;52.226;21.254;2024-01-07T16:55:58;100908.22;;;-9.15;100.00
44988;BME280;35735;52.226;21.254;2024-01-07T17:00:59;100916.84;;;-9.16;100.00
44988;BME280;35735;52.226;21.254;2024-01-07T17:06:01;100918.03;;;-9.22;100.00
44988;BME280;35735;52.226;21.254;2024-01-07T17:11:02;100930.47;;;-9.20;100.00
44988;BME280;35735;52.226;21.254;2024-01-07T17:16:03;100929.56;;;-9.20;100.00
44988;BME280;35735;52.226;21.254;2024-01-07T17:21:04;100933.22;;;-9.28;100.00
44988;BME280;35735;52.226;21.254;2024-01-07T17:26:04;100943.53;;;-9.30;100.00
44988;BME280;35735;52.226;21.254;2024-01-07T17:31:05;100950.22;;;-9.23;100.00
44988;BME280;35735;52.226;21.254;2024-01-07T17:36:05;100951.50;;;-9.28;100.00
44988;BME280;35735;52.226;21.254;2024-01-07T17:41:06;100957.22;;;-9.33;100.00
44988;BME280;35735;52.226;21.254;2024-01-07T17:46:07;100967.53;;;-9.44;100.00
44988;BME280;35735;52.226;21.254;2024-01-07T17:51:08;100977.22;;;-9.43;100.00
44988;BME280;35735;52.226;21.254;2024-01-07T17:56:17;100976.66;;;-9.50;100.00
44988;BME280;35735;52.226;21.254;2024-01-07T18:01:20;100980.69;;;-9.63;100.00
44988;BME280;35735;52.226;21.254;2024-01-07T18:06:21;100976.63;;;-9.60;100.00
44988;BME280;35735;52.226;21.254;2024-01-07T18:11:21;100988.09;;;-9.68;100.00
44988;BME280;35735;52.226;21.254;2024-01-07T18:16:22;100993.81;;;-9.72;100.00
44988;BME280;35735;52.226;21.254;2024-01-07T18:21:22;101003.69;;;-9.89;100.00
44988;BME280;35735;52.226;21.254;2024-01-07T18:26:25;101013.28;;;-9.98;100.00
44988;BME280;35735;52.226;21.254;2024-01-07T18:31:26;101015.75;;;-9.99;100.00
44988;BME280;35735;52.226;21.254;2024-01-07T18:36:27;101018.28;;;-9.91;100.00
44988;BME280;35735;52.226;21.254;2024-01-07T18:41:27;101012.44;;;-9.88;100.00
44988;BME280;35735;52.226;21.254;2024-01-07T18:46:28;101017.38;;;-9.91;100.00
44988;BME280;35735;52.226;21.254;2024-01-07T18:51:29;101022.03;;;-9.97;100.00
44988;BME280;35735;52.226;21.254;2024-01-07T18:56:29;101026.63;;;-9.95;100.00
44988;BME280;35735;52.226;21.254;2024-01-07T19:01:30;101029.81;;;-10.08;100.00
44988;BME280;35735;52.226;21.254;2024-01-07T19:06:30;101042.44;;;-10.12;100.00
44988;BME280;35735;52.226;21.254;2024-01-07T19:11:31;101047.59;;;-10.22;100.00
44988;BME280;35735;52.226;21.254;2024-01-07T19:16:31;101048.03;;;-10.18;100.00
44988;BME280;35735;52.226;21.254;2024-01-07T19:21:32;101059.56;;;-10.35;100.00
44988;BME280;35735;52.226;21.254;2024-01-07T19:26:32;101055.62;;;-10.40;100.00
44988;BME280;35735;52.226;21.254;2024-01-07T19:31:37;101061.44;;;-10.43;100.00
44988;BME280;35735;52.226;21.254;2024-01-07T19:36:41;101061.81;;;-10.48;100.00
44988;BME280;35735;52.226;21.254;2024-01-07T19:41:42;101070.59;;;-10.56;100.00
44988;BME280;35735;52.226;21.254;2024-01-07T19:46:42;101070.00;;;-10.63;100.00
44988;BME280;35735;52.226;21.254;2024-01-07T19:51:43;101072.47;;;-10.55;100.00
44988;BME280;35735;52.226;21.254;2024-01-07T19:56:43;101077.84;;;-10.63;100.00
44988;BME280;35735;52.226;21.254;2024-01-07T20:01:44;101089.38;;;-10.69;100.00
44988;BME280;35735;52.226;21.254;2024-01-07T20:06:44;101092.78;;;-10.70;100.00
44988;BME280;35735;52.226;21.254;2024-01-07T20:11:45;101094.47;;;-10.71;100.00
44988;BME280;35735;52.226;21.254;2024-01-07T20:16:45;101099.69;;;-10.71;100.00
44988;BME280;35735;52.226;21.254;2024-01-07T20:21:46;101117.69;;;-10.74;100.00
44988;BME280;35735;52.226;21.254;2024-01-07T20:26:47;101121.53;;;-10.79;100.00
44988;BME280;35735;52.226;21.254;2024-01-07T20:31:47;101122.16;;;-10.82;100.00
44988;BME280;35735;52.226;21.254;2024-01-07T20:36:48;101121.66;;;-10.77;100.00
44988;BME280;35735;52.226;21.254;2024-01-07T20:41:48;101127.31;;;-10.73;100.00
44988;BME280;35735;52.226;21.254;2024-01-07T20:46:49;101123.94;;;-10.72;100.00
44988;BME280;35735;52.226;21.254;2024-01-07T20:51:49;101124.41;;;-10.76;100.00
44988;BME280;35735;52.226;21.254;2024-01-07T20:56:50;101135.94;;;-10.74;100.00
44988;BME280;35735;52.226;21.254;2024-01-07T21:01:51;101134.69;;;-10.69;100.00
44988;BME280;35735;52.226;21.254;2024-01-07T21:06:51;101127.88;;;-10.58;100.00
44988;BME280;35735;52.226;21.254;2024-01-07T21:11:52;101129.72;;;-10.57;100.00
44988;BME280;35735;52.226;21.254;2024-01-07T21:16:52;101134.78;;;-10.58;100.00
44988;BME280;35735;52.226;21.254;2024-01-07T21:21:53;101137.09;;;-10.62;100.00
44988;BME280;35735;52.226;21.254;2024-01-07T21:26:53;101149.37;;;-10.60;100.00
44988;BME280;35735;52.226;21.254;2024-01-07T21:31:54;101147.22;;;-10.65;100.00
44988;BME280;35735;52.226;21.254;2024-01-07T21:36:55;101156.13;;;-10.63;100.00
44988;BME280;35735;52.226;21.254;2024-01-07T21:41:55;101161.06;;;-10.66;100.00
44988;BME280;35735;52.226;21.254;2024-01-07T21:46:56;101162.28;;;-10.71;100.00
44988;BME280;35735;52.226;21.254;2024-01-07T21:51:56;101160.78;;;-10.69;100.00
44988;BME280;35735;52.226;21.254;2024-01-07T21:56:57;101162.13;;;-10.64;100.00
44988;BME280;35735;52.226;21.254;2024-01-07T22:01:58;101166.56;;;-10.63;100.00
44988;BME280;35735;52.226;21.254;2024-01-07T22:06:58;101171.31;;;-10.58;100.00
44988;BME280;35735;52.226;21.254;2024-01-07T22:11:59;101181.94;;;-10.66;100.00
44988;BME280;35735;52.226;21.254;2024-01-07T22:16:59;101177.69;;;-10.74;100.00
44988;BME280;35735;52.226;21.254;2024-01-07T22:22:00;101179.50;;;-10.73;100.00
44988;BME280;35735;52.226;21.254;2024-01-07T22:27:00;101197.78;;;-10.82;100.00
44988;BME280;35735;52.226;21.254;2024-01-07T22:32:01;101201.31;;;-10.81;100.00
44988;BME280;35735;52.226;21.254;2024-01-07T22:37:02;101208.72;;;-10.86;100.00
44988;BME280;35735;52.226;21.254;2024-01-07T22:42:03;101217.00;;;-10.90;100.00
44988;BME280;35735;52.226;21.254;2024-01-07T22:47:04;101214.72;;;-10.95;100.00
44988;BME280;35735;52.226;21.254;2024-01-07T22:52:04;101208.12;;;-11.09;100.00
44988;BME280;35735;52.226;21.254;2024-01-07T22:57:05;101219.50;;;-11.09;100.00
44988;BME280;35735;52.226;21.254;2024-01-07T23:02:05;101231.44;;;-11.11;100.00
44988;BME280;35735;52.226;21.254;2024-01-07T23:07:06;101235.28;;;-11.16;100.00
44988;BME280;35735;52.226;21.254;2024-01-07T23:12:07;101242.50;;;-11.13;100.00
44988;BME280;35735;52.226;21.254;2024-01-07T23:17:07;101247.56;;;-11.15;100.00
44988;BME280;35735;52.226;21.254;2024-01-07T23:22:08;101253.84;;;-11.22;100.00
44988;BME280;35735;52.226;21.254;2024-01-07T23:27:08;101253.09;;;-11.21;100.00
44988;BME280;35735;52.226;21.254;2024-01-07T23:32:09;101252.00;;;-11.14;100.00
44988;BME280;35735;52.226;21.254;2024-01-07T23:37:09;101253.38;;;-11.09;100.00
44988;BME280;35735;52.226;21.254;2024-01-07T23:42:10;101255.34;;;-10.97;100.00
44988;BME280;35735;52.226;21.254;2024-01-07T23:47:11;101260.25;;;-10.92;100.00
44988;BME280;35735;52.226;21.254;2024-01-07T23:52:11;101258.41;;;-10.93;100.00
44988;BME280;35735;52.226;21.254;2024-01-07T23:57:12;101274.84;;;-10.94;100.00
